Accueil
METAR-TAF:

METAR-TAF

Aéroports :

Georgetown, Île de l'Ascension

latitude: 07-58S, longitude: 014-24W, altitude: 86 m

METAR: absent

Heure: 08:53 (08:53 UTC)

Prévision

Le bulletin a été fait il y a 1 heure et 38 minutes, à 07:15 UTC
Prévision valable du 21 à 09 UTC au 22 à 03 UTC
Vent 13 kt de sud-est
Visibilité 10 km ou plus
Quelques nuages à une hauteur de 1800 ft
Nuages fragmentés à une hauteur de 3000 ft
Probabilité 30% :
Temporairement
du 21 à 09 UTC au 21 à 21 UTC
Nuages épars à une hauteur de 1500 ft
Probabilité 40% :
Temporairement
du 21 à 21 UTC au 22 à 03 UTC
Visibilité: 7000 m
Nuages épars à une hauteur de 1200 ft
faibles averses de pluie

TAF: FHAW 210715Z 2109/2203 14013KT 9999 FEW018 BKN030 PROB30 TEMPO 2109/2121 SCT015 PROB40 TEMPO 2121/2203 7000 -SHRA SCT012

Observations et prévisions météorologiques de plus de 4000 aéroports (messages METAR et TAF).

Les stations disponibles sont représentées par des disques jaunes et rouges sur la carte.

Passer la souris dessus pour voir le nom de la station.

Cliquer dessus pour voir les observations et prévisions météorologiques.

Pour changer de carte: cliquez sur les boutons verts avec une croix noire pour zoomer, sur le bouton vert avec un tiret pour effectuer un zoom arrière, ou sur les flèches vertes pour les cartes adjacentes.


METAR-TAF: